createdAt,value
2018-03-27T00:00:44.950Z,6.30
2018-03-27T00:03:13.878Z,6.20
2018-03-27T00:05:42.159Z,6.10
2018-03-27T00:08:10.331Z,6.20
2018-03-27T00:10:38.502Z,6.20
2018-03-27T00:13:06.689Z,6.20
2018-03-27T00:15:34.851Z,6.10
2018-03-27T00:18:03.034Z,6.10
2018-03-27T00:20:31.193Z,6.10
2018-03-27T00:22:59.364Z,6.10
2018-03-27T00:25:27.532Z,6.10
2018-03-27T00:28:14.109Z,6.10
2018-03-27T00:31:00.217Z,6.00
2018-03-27T00:33:47.018Z,5.90
2018-03-27T00:36:33.092Z,5.90
2018-03-27T00:39:19.215Z,6.00
2018-03-27T00:45:00.871Z,5.80
2018-03-27T00:47:29.048Z,5.80
2018-03-27T00:49:57.251Z,5.80
2018-03-27T00:52:25.455Z,5.90
2018-03-27T00:54:54.429Z,5.80
2018-03-27T00:57:22.640Z,5.70
2018-03-27T00:59:50.864Z,5.70
2018-03-27T01:02:19.040Z,5.70
2018-03-27T01:04:47.207Z,5.60
2018-03-27T01:07:15.380Z,5.70
2018-03-27T01:09:43.566Z,5.60
2018-03-27T01:12:11.764Z,5.60
2018-03-27T01:14:39.938Z,5.60
2018-03-27T01:17:08.104Z,5.60
2018-03-27T01:19:36.286Z,5.60
2018-03-27T01:22:04.454Z,5.60
2018-03-27T01:24:32.622Z,5.60
2018-03-27T01:27:00.808Z,5.60
2018-03-27T01:29:28.975Z,5.60
2018-03-27T01:31:57.144Z,5.60
2018-03-27T01:34:25.310Z,5.60
2018-03-27T01:36:53.486Z,5.60
2018-03-27T01:39:21.650Z,5.60
2018-03-27T01:41:49.823Z,5.60
2018-03-27T01:44:18.032Z,5.60
2018-03-27T01:46:46.215Z,5.60
2018-03-27T01:49:15.176Z,5.60
2018-03-27T01:51:43.366Z,5.50
2018-03-27T01:54:11.527Z,5.60
2018-03-27T01:56:39.702Z,5.60
2018-03-27T01:59:07.900Z,5.60
2018-03-27T02:01:36.075Z,5.60
2018-03-27T02:04:04.258Z,5.60
2018-03-27T02:06:33.223Z,5.60
2018-03-27T02:09:01.410Z,5.50
2018-03-27T02:11:35.118Z,5.50
2018-03-27T02:14:08.819Z,5.50
2018-03-27T02:16:42.564Z,5.40
2018-03-27T02:19:16.305Z,5.40
2018-03-27T02:21:43.922Z,5.40
2018-03-27T02:24:14.635Z,5.40
2018-03-27T02:26:43.605Z,5.30
2018-03-27T02:29:11.787Z,5.20
2018-03-27T02:31:39.978Z,5.30
2018-03-27T02:34:08.939Z,5.20
2018-03-27T02:36:37.133Z,5.10
2018-03-27T02:39:05.369Z,5.20
2018-03-27T02:41:33.566Z,5.20
2018-03-27T02:44:01.804Z,5.20
2018-03-27T02:46:30.014Z,5.10
2018-03-27T02:48:58.180Z,5.10
2018-03-27T02:51:26.390Z,5.10
2018-03-27T02:53:54.585Z,5.10
2018-03-27T02:56:23.530Z,5.10
2018-03-27T02:58:51.744Z,5.00
2018-03-27T03:01:20.720Z,5.10
2018-03-27T03:03:48.931Z,5.00
2018-03-27T03:06:17.120Z,5.10
2018-03-27T03:08:45.293Z,5.10
2018-03-27T03:11:13.487Z,5.10
2018-03-27T03:13:41.668Z,5.10
2018-03-27T03:16:09.840Z,5.10
2018-03-27T03:18:38.014Z,5.10
2018-03-27T03:21:06.248Z,5.00
2018-03-27T03:23:34.411Z,5.00
2018-03-27T03:26:03.396Z,5.00
2018-03-27T03:28:31.570Z,4.90
2018-03-27T03:30:59.763Z,4.90
2018-03-27T03:33:28.700Z,4.90
2018-03-27T03:35:56.912Z,4.90
2018-03-27T03:38:25.086Z,4.90
2018-03-27T03:40:53.287Z,4.90
2018-03-27T03:43:22.223Z,4.90
2018-03-27T03:45:50.405Z,4.80
2018-03-27T03:48:18.605Z,4.80
2018-03-27T03:50:46.788Z,4.80
2018-03-27T03:53:15.742Z,4.80
2018-03-27T03:55:44.704Z,4.80
2018-03-27T03:58:12.875Z,4.70
2018-03-27T04:00:41.049Z,4.70
2018-03-27T04:03:09.324Z,4.70
2018-03-27T04:05:37.520Z,4.70
2018-03-27T04:08:05.739Z,4.70
2018-03-27T04:10:33.913Z,4.70
2018-03-27T04:13:02.094Z,4.60
2018-03-27T04:15:31.040Z,4.50
2018-03-27T04:17:59.251Z,4.50
2018-03-27T04:20:27.452Z,4.50
2018-03-27T04:22:56.401Z,4.60
2018-03-27T04:25:24.605Z,4.50
2018-03-27T04:27:53.560Z,4.50
2018-03-27T04:30:21.737Z,4.40
2018-03-27T04:32:49.912Z,4.50
2018-03-27T04:35:18.093Z,4.50
2018-03-27T04:37:46.303Z,4.60
2018-03-27T04:40:15.238Z,4.60
2018-03-27T04:42:43.437Z,4.50
2018-03-27T04:45:11.624Z,4.50
2018-03-27T04:47:39.799Z,4.60
2018-03-27T04:50:07.979Z,4.60
2018-03-27T04:52:36.159Z,4.60
2018-03-27T04:55:04.340Z,4.60
2018-03-27T04:57:33.279Z,4.70
2018-03-27T05:00:01.451Z,4.60
2018-03-27T05:02:29.640Z,4.70
2018-03-27T05:04:57.847Z,4.70
2018-03-27T05:07:26.030Z,4.70
2018-03-27T05:09:54.983Z,4.70
2018-03-27T05:12:23.173Z,4.70
2018-03-27T05:14:51.395Z,4.80
2018-03-27T05:17:19.574Z,4.80
2018-03-27T05:19:47.746Z,4.80
2018-03-27T05:22:15.942Z,4.80
2018-03-27T05:24:44.135Z,4.80
2018-03-27T05:27:12.311Z,4.80
2018-03-27T05:29:40.546Z,4.90
2018-03-27T05:32:08.771Z,4.90
2018-03-27T05:34:37.727Z,5.00
2018-03-27T05:37:05.921Z,4.90
2018-03-27T05:39:34.099Z,5.00
2018-03-27T05:42:03.033Z,5.00
2018-03-27T05:44:31.968Z,5.10
2018-03-27T05:47:00.159Z,5.00
2018-03-27T05:49:28.366Z,5.10
2018-03-27T05:51:56.547Z,5.20
2018-03-27T05:54:25.544Z,5.30
2018-03-27T05:56:54.528Z,5.30
2018-03-27T05:59:22.708Z,5.30
2018-03-27T06:01:50.882Z,5.40
2018-03-27T06:04:19.056Z,5.50
2018-03-27T06:06:47.251Z,5.70
2018-03-27T06:09:16.240Z,5.80
2018-03-27T06:11:45.194Z,5.90
2018-03-27T06:14:13.399Z,5.90
2018-03-27T06:16:42.346Z,6.00
2018-03-27T06:19:10.527Z,5.90
2018-03-27T06:21:38.706Z,6.00
2018-03-27T06:24:07.219Z,6.00
2018-03-27T06:26:35.391Z,6.00
2018-03-27T06:29:03.564Z,6.00
2018-03-27T06:31:32.531Z,6.10
2018-03-27T06:34:00.701Z,6.10
2018-03-27T06:36:28.898Z,6.20
2018-03-27T06:38:57.086Z,6.20
2018-03-27T06:41:26.040Z,6.30
2018-03-27T06:43:54.215Z,6.30
2018-03-27T06:46:22.397Z,6.50
2018-03-27T06:48:50.578Z,6.60
2018-03-27T06:51:18.800Z,6.70
2018-03-27T06:53:47.078Z,6.60
2018-03-27T06:56:15.263Z,6.70
2018-03-27T06:58:43.431Z,6.70
2018-03-27T07:01:11.602Z,6.60
2018-03-27T07:03:39.810Z,6.60
2018-03-27T07:06:08.006Z,6.60
2018-03-27T07:08:36.239Z,6.50
2018-03-27T07:11:05.182Z,6.60
2018-03-27T07:13:33.374Z,6.50
2018-03-27T07:16:02.327Z,6.60
2018-03-27T07:18:30.520Z,6.50
2018-03-27T07:20:58.710Z,6.60
2018-03-27T07:23:27.671Z,6.70
2018-03-27T07:25:55.843Z,6.60
2018-03-27T07:28:24.023Z,6.60
2018-03-27T07:30:52.203Z,6.60
2018-03-27T07:33:20.386Z,6.60
2018-03-27T07:35:48.579Z,6.60
2018-03-27T07:38:17.514Z,6.70
2018-03-27T07:40:45.676Z,6.60
2018-03-27T07:43:13.851Z,6.70
2018-03-27T07:45:42.059Z,6.80
2018-03-27T07:48:10.233Z,6.80
2018-03-27T07:50:38.394Z,6.90
2018-03-27T07:53:06.571Z,6.90
2018-03-27T07:55:34.747Z,7.00
2018-03-27T07:58:02.927Z,7.10
2018-03-27T08:00:31.111Z,7.20
2018-03-27T08:02:59.287Z,7.20
2018-03-27T08:05:27.490Z,7.30
2018-03-27T08:07:55.666Z,7.30
2018-03-27T08:10:23.842Z,7.40
2018-03-27T08:12:52.811Z,7.60
2018-03-27T08:15:21.013Z,7.60
2018-03-27T08:17:49.955Z,7.90
2018-03-27T08:20:18.122Z,7.80
2018-03-27T08:22:46.296Z,8.00
2018-03-27T08:25:14.498Z,8.20
2018-03-27T08:27:42.670Z,8.30
2018-03-27T08:30:10.863Z,8.40
2018-03-27T08:32:39.070Z,8.50
2018-03-27T08:35:08.002Z,8.70
2018-03-27T08:37:36.182Z,8.60
2018-03-27T08:40:04.372Z,8.60
2018-03-27T08:42:32.573Z,8.60
2018-03-27T08:45:01.527Z,8.80
2018-03-27T08:47:29.706Z,8.70
2018-03-27T08:49:57.869Z,9.00
2018-03-27T08:52:26.045Z,9.20
2018-03-27T08:54:54.253Z,9.40
2018-03-27T08:57:22.416Z,9.30
2018-03-27T08:59:50.646Z,9.40
2018-03-27T09:02:18.825Z,9.50
2018-03-27T09:04:47.003Z,9.70
2018-03-27T09:07:15.207Z,9.90
2018-03-27T09:09:43.423Z,10.00
2018-03-27T09:12:12.382Z,10.20
2018-03-27T09:14:40.564Z,10.20
2018-03-27T09:17:08.768Z,10.40
2018-03-27T09:19:37.744Z,10.50
2018-03-27T09:22:05.924Z,10.40
2018-03-27T09:24:34.876Z,10.60
2018-03-27T09:27:03.852Z,10.90
2018-03-27T09:29:32.030Z,10.80
2018-03-27T09:32:00.217Z,11.10
2018-03-27T09:34:28.400Z,11.20
2018-03-27T10:52:54.284Z,11.40
2018-03-27T10:55:23.534Z,13.80
2018-03-27T10:57:51.720Z,13.70
2018-03-27T11:00:19.907Z,14.70
2018-03-27T11:02:48.207Z,15.60
2018-03-27T11:05:17.155Z,16.70
2018-03-27T11:07:45.336Z,16.60
2018-03-27T11:10:13.515Z,17.30
2018-03-27T11:12:41.722Z,17.80
2018-03-27T11:15:10.710Z,19.10
2018-03-27T11:17:38.882Z,19.00
2018-03-27T11:20:07.852Z,20.20
2018-03-27T11:22:36.023Z,20.10
2018-03-27T11:25:04.199Z,20.80
2018-03-27T11:27:32.379Z,21.10
2018-03-27T11:30:00.552Z,20.90
2018-03-27T11:32:28.774Z,20.60
2018-03-27T11:34:57.716Z,19.60
2018-03-27T11:37:25.888Z,19.60
2018-03-27T11:39:54.069Z,19.70
2018-03-27T11:42:22.290Z,19.50
2018-03-27T11:44:51.234Z,18.60
2018-03-27T11:47:19.427Z,18.60
2018-03-27T11:49:47.612Z,18.30
2018-03-27T11:52:15.781Z,17.10
2018-03-27T11:54:44.015Z,16.50
2018-03-27T11:57:12.208Z,16.20
2018-03-27T11:59:40.388Z,16.10
2018-03-27T12:02:08.595Z,16.50
2018-03-27T12:04:37.583Z,15.00
2018-03-27T12:07:06.547Z,14.20
2018-03-27T12:09:34.719Z,14.10
2018-03-27T12:12:02.938Z,14.30
2018-03-27T12:14:31.891Z,16.40
2018-03-27T12:17:00.084Z,16.40
2018-03-27T12:19:28.262Z,18.10
2018-03-27T12:21:56.498Z,20.20
2018-03-27T12:24:24.687Z,21.70
2018-03-27T12:26:52.874Z,23.00
2018-03-27T12:29:21.049Z,25.10
2018-03-27T12:31:49.230Z,25.80
2018-03-27T12:34:17.414Z,27.10
2018-03-27T12:36:45.590Z,27.10
2018-03-27T12:39:14.550Z,25.40
2018-03-27T12:41:42.728Z,25.30
2018-03-27T12:44:10.914Z,24.80
2018-03-27T12:46:39.100Z,24.10
2018-03-27T12:49:07.299Z,22.90
2018-03-27T12:51:36.262Z,25.20
2018-03-27T12:54:04.484Z,25.20
2018-03-27T12:56:32.707Z,27.50
2018-03-27T12:59:00.910Z,28.60
2018-03-27T13:01:29.094Z,28.10
2018-03-27T13:03:58.050Z,29.70
2018-03-27T13:06:26.245Z,29.60
2018-03-27T13:08:54.451Z,30.10
2018-03-27T13:11:22.639Z,30.80
2018-03-27T13:13:50.812Z,29.80
2018-03-27T13:16:18.979Z,27.70
2018-03-27T13:18:47.175Z,24.40
2018-03-27T13:21:15.358Z,21.80
2018-03-27T13:23:43.535Z,20.30
2018-03-27T13:26:11.712Z,19.90
2018-03-27T13:28:39.899Z,19.60
2018-03-27T13:31:08.078Z,19.80
2018-03-27T13:33:36.257Z,19.60
2018-03-27T13:36:04.444Z,18.50
2018-03-27T13:38:33.388Z,17.70
2018-03-27T13:41:01.591Z,17.60
2018-03-27T13:43:29.784Z,17.30
2018-03-27T13:45:57.959Z,17.40
2018-03-27T13:48:26.969Z,20.00
2018-03-27T13:50:55.919Z,21.50
2018-03-27T13:53:24.106Z,21.50
2018-03-27T13:55:52.319Z,23.40
2018-03-27T13:58:20.505Z,23.40
2018-03-27T14:00:48.713Z,23.90
2018-03-27T14:03:16.912Z,23.90
2018-03-27T14:05:45.102Z,22.80
2018-03-27T14:08:14.046Z,22.60
2018-03-27T14:10:42.235Z,22.50
2018-03-27T14:13:10.422Z,22.70
2018-03-27T14:15:38.640Z,21.30
2018-03-27T14:18:06.846Z,20.10
2018-03-27T14:20:35.031Z,19.00
2018-03-27T14:23:03.217Z,17.60
2018-03-27T14:25:31.391Z,16.40
2018-03-27T14:27:59.583Z,15.60
2018-03-27T14:30:27.791Z,15.00
2018-03-27T14:32:56.002Z,14.50
2018-03-27T14:35:24.179Z,14.20
2018-03-27T14:37:52.381Z,14.00
2018-03-27T14:40:20.557Z,13.80
2018-03-27T14:42:48.734Z,13.30
2018-03-27T14:45:17.723Z,12.40
2018-03-27T14:47:45.917Z,12.30
2018-03-27T14:50:14.881Z,12.20
2018-03-27T14:52:43.074Z,12.10
2018-03-27T14:55:12.026Z,13.00
2018-03-27T14:57:40.210Z,12.90
2018-03-27T15:00:08.399Z,14.30
2018-03-27T15:02:36.586Z,16.60
2018-03-27T15:05:04.798Z,18.50
2018-03-27T15:07:32.971Z,19.40
2018-03-27T15:10:01.184Z,19.40
2018-03-27T15:12:29.334Z,18.90
2018-03-27T15:14:57.523Z,18.00
2018-03-27T15:17:25.703Z,17.00
2018-03-27T15:19:53.866Z,16.20
2018-03-27T15:22:22.087Z,15.50
2018-03-27T15:24:51.031Z,14.00
2018-03-27T15:27:19.211Z,13.90
2018-03-27T15:29:47.390Z,13.50
2018-03-27T15:32:15.612Z,12.90
2018-03-27T15:34:44.649Z,12.10
2018-03-27T15:37:12.859Z,12.00
2018-03-27T15:39:41.066Z,11.90
2018-03-27T15:42:10.095Z,11.60
2018-03-27T15:44:39.035Z,11.50
2018-03-27T15:47:07.255Z,11.50
2018-03-27T15:49:35.431Z,11.50
2018-03-27T15:52:03.630Z,11.40
2018-03-27T15:54:31.808Z,11.30
2018-03-27T15:56:59.993Z,11.20
2018-03-27T15:59:28.168Z,11.10
2018-03-27T16:01:56.353Z,11.00
2018-03-27T16:04:24.558Z,11.00
2018-03-27T16:06:52.739Z,10.90
2018-03-27T16:09:20.922Z,10.70
2018-03-27T16:11:49.097Z,10.70
2018-03-27T16:14:17.341Z,10.70
2018-03-27T16:16:46.302Z,11.40
2018-03-27T16:19:14.506Z,11.30
2018-03-27T16:21:43.449Z,12.30
2018-03-27T16:24:11.650Z,12.20
2018-03-27T16:26:39.831Z,12.50
2018-03-27T16:29:08.030Z,12.60
2018-03-27T16:31:37.011Z,12.80
2018-03-27T16:34:06.036Z,12.80
2018-03-27T16:36:35.013Z,12.70
2018-03-27T16:39:04.026Z,12.60
2018-03-27T16:41:32.206Z,12.50
2018-03-27T16:44:00.675Z,12.40
2018-03-27T16:46:28.978Z,12.30
2018-03-27T16:48:57.158Z,12.10
2018-03-27T16:51:25.329Z,11.90
2018-03-27T16:53:53.507Z,11.70
2018-03-27T16:56:21.699Z,11.40
2018-03-27T16:58:49.873Z,11.10
2018-03-27T17:01:18.088Z,10.90
2018-03-27T17:03:47.033Z,10.30
2018-03-27T17:06:15.246Z,10.30
2018-03-27T17:08:44.203Z,10.00
2018-03-27T17:11:12.381Z,9.90
2018-03-27T17:13:40.639Z,9.90
2018-03-27T17:16:08.872Z,9.70
2018-03-27T17:18:37.033Z,9.60
2018-03-27T17:21:05.261Z,9.50
2018-03-27T17:23:33.450Z,9.40
2018-03-27T17:26:01.656Z,9.30
2018-03-27T17:28:29.829Z,9.20
2018-03-27T17:30:58.014Z,9.10
2018-03-27T17:33:26.959Z,8.80
2018-03-27T17:35:55.138Z,8.80
2018-03-27T17:38:23.322Z,8.70
2018-03-27T17:40:51.499Z,8.60
2018-03-27T17:43:19.684Z,8.50
2018-03-27T17:45:47.872Z,8.50
2018-03-27T17:48:16.074Z,8.50
2018-03-27T17:50:45.040Z,8.30
2018-03-27T17:53:13.261Z,8.30
2018-03-27T17:55:41.443Z,8.30
2018-03-27T17:58:09.619Z,8.40
2018-03-27T18:00:37.808Z,8.30
2018-03-27T18:03:06.019Z,8.40
2018-03-27T18:05:34.201Z,8.30
2018-03-27T18:08:03.147Z,8.30
2018-03-27T18:10:31.336Z,8.30
2018-03-27T18:12:59.516Z,8.30
2018-03-27T18:15:27.696Z,8.30
2018-03-27T18:17:55.870Z,8.30
2018-03-27T18:20:24.046Z,8.20
2018-03-27T18:22:52.237Z,8.20
2018-03-27T18:25:21.184Z,8.10
2018-03-27T18:27:49.385Z,8.10
2018-03-27T18:30:17.572Z,8.10
2018-03-27T18:32:45.790Z,8.10
2018-03-27T18:35:13.957Z,8.00
2018-03-27T18:37:42.159Z,7.80
2018-03-27T18:40:10.351Z,7.70
2018-03-27T18:42:38.543Z,7.70
2018-03-27T18:45:06.738Z,7.60
2018-03-27T18:47:35.673Z,7.40
2018-03-27T18:50:03.843Z,7.30
2018-03-27T18:52:32.021Z,7.40
2018-03-27T18:55:00.222Z,7.30
2018-03-27T18:57:28.410Z,7.30
2018-03-27T18:59:57.533Z,7.20
2018-03-27T19:02:26.492Z,7.20
2018-03-27T19:04:54.668Z,7.10
2018-03-27T19:07:22.835Z,7.20
2018-03-27T19:09:51.032Z,7.00
2018-03-27T19:12:19.218Z,6.90
2018-03-27T19:14:48.173Z,6.80
2018-03-27T19:17:16.378Z,6.80
2018-03-27T19:19:45.333Z,6.80
2018-03-27T19:22:13.599Z,6.70
2018-03-27T19:24:41.773Z,6.80
2018-03-27T19:27:09.974Z,6.80
2018-03-27T19:29:38.146Z,6.80
2018-03-27T19:32:06.306Z,6.80
2018-03-27T19:34:34.489Z,6.80
2018-03-27T19:37:02.680Z,6.80
2018-03-27T19:39:30.846Z,6.80
2018-03-27T19:41:59.030Z,6.80
2018-03-27T19:44:27.246Z,6.80
2018-03-27T19:46:55.427Z,6.80
2018-03-27T19:49:23.606Z,6.80
2018-03-27T19:51:51.774Z,6.80
2018-03-27T19:54:19.956Z,6.90
2018-03-27T19:56:48.124Z,6.90
2018-03-27T19:59:16.299Z,6.90
2018-03-27T20:01:44.484Z,6.90
2018-03-27T20:04:12.674Z,6.90
2018-03-27T20:06:40.846Z,6.80
2018-03-27T20:09:09.027Z,6.80
2018-03-27T20:11:37.213Z,6.80
2018-03-27T20:14:05.391Z,6.80
2018-03-27T20:16:33.574Z,6.80
2018-03-27T20:19:01.760Z,6.80
2018-03-27T20:21:29.956Z,6.80
2018-03-27T20:23:58.895Z,6.60
2018-03-27T20:26:27.837Z,6.50
2018-03-27T20:28:56.782Z,6.30
2018-03-27T20:31:24.952Z,6.30
2018-03-27T20:33:53.884Z,6.10
2018-03-27T20:36:22.835Z,6.00
2018-03-27T20:38:51.012Z,5.90
2018-03-27T20:41:19.182Z,6.00
2018-03-27T20:43:47.362Z,6.00
2018-03-27T20:46:15.556Z,6.00
2018-03-27T20:48:43.753Z,5.90
2018-03-27T20:51:12.705Z,5.70
2018-03-27T20:53:40.879Z,5.60
2018-03-27T20:56:09.059Z,5.60
2018-03-27T20:58:37.264Z,5.60
2018-03-27T21:01:06.211Z,5.50
2018-03-27T21:03:34.396Z,5.50
2018-03-27T21:06:02.610Z,5.60
2018-03-27T21:08:31.588Z,5.60
2018-03-27T21:10:59.787Z,5.50
2018-03-27T21:13:28.720Z,5.50
2018-03-27T21:15:56.905Z,5.40
2018-03-27T21:18:25.086Z,5.50
2018-03-27T21:20:53.306Z,5.40
2018-03-27T21:23:22.250Z,5.30
2018-03-27T21:25:50.422Z,5.30
2018-03-27T21:28:18.603Z,5.20
2018-03-27T21:30:46.807Z,5.20
2018-03-27T21:33:15.762Z,5.10
2018-03-27T21:35:44.007Z,5.00
2018-03-27T21:38:12.183Z,5.10
2018-03-27T21:40:40.353Z,5.00
2018-03-27T21:43:08.540Z,5.00
2018-03-27T21:45:36.724Z,5.10
2018-03-27T21:48:04.904Z,5.10
2018-03-27T21:50:33.096Z,5.00
2018-03-27T21:53:01.273Z,5.00
2018-03-27T21:55:29.455Z,4.90
2018-03-27T21:57:57.667Z,4.90
2018-03-27T22:00:26.611Z,4.80
2018-03-27T22:02:54.796Z,4.80
2018-03-27T22:05:22.972Z,4.80
2018-03-27T22:07:51.123Z,4.70
2018-03-27T22:10:19.288Z,4.80
2018-03-27T22:12:47.451Z,4.80
2018-03-27T22:15:15.614Z,4.70
2018-03-27T22:17:43.751Z,4.60
2018-03-27T22:20:11.899Z,4.60
2018-03-27T22:22:40.050Z,4.50
2018-03-27T22:25:08.196Z,4.50
2018-03-27T22:27:37.095Z,4.40
2018-03-27T22:30:06.008Z,4.40
2018-03-27T22:32:34.161Z,4.30
2018-03-27T22:35:03.077Z,4.40
2018-03-27T22:37:31.207Z,4.40
2018-03-27T22:39:59.347Z,4.40
2018-03-27T22:42:27.499Z,4.40
2018-03-27T22:44:55.649Z,4.40
2018-03-27T22:47:24.556Z,4.30
2018-03-27T22:49:52.708Z,4.20
2018-03-27T22:52:21.606Z,4.20
2018-03-27T22:54:50.514Z,4.10
2018-03-27T22:57:18.648Z,4.00
2018-03-27T22:59:46.785Z,4.10
2018-03-27T23:02:14.943Z,4.10
2018-03-27T23:04:43.097Z,4.00
2018-03-27T23:07:11.305Z,4.00
2018-03-27T23:09:39.448Z,4.00
2018-03-27T23:12:07.627Z,4.00
2018-03-27T23:14:35.782Z,4.00
2018-03-27T23:17:04.696Z,4.00
2018-03-27T23:19:32.922Z,3.90
2018-03-27T23:22:01.073Z,4.00
2018-03-27T23:24:29.204Z,3.90
2018-03-27T23:26:58.154Z,3.80
2018-03-27T23:29:26.298Z,3.80
2018-03-27T23:31:54.618Z,3.90
2018-03-27T23:34:22.754Z,3.80
2018-03-27T23:36:50.890Z,3.80
2018-03-27T23:39:19.796Z,3.80
2018-03-27T23:41:48.019Z,3.70
2018-03-27T23:44:16.112Z,3.70
2018-03-27T23:46:44.334Z,3.70
2018-03-27T23:49:12.427Z,3.70
2018-03-27T23:51:40.598Z,3.70
2018-03-27T23:54:08.762Z,3.60
2018-03-27T23:56:36.892Z,3.70
2018-03-27T23:59:05.828Z,3.70
